createdAt,value
2017-09-05T00:02:22.182Z,10.40
2017-09-05T00:04:50.425Z,10.90
2017-09-05T00:07:21.256Z,5.90
2017-09-05T00:10:00.187Z,7.90
2017-09-05T00:12:28.470Z,4.20
2017-09-05T00:18:05.599Z,4.60
2017-09-05T00:20:36.395Z,3.57
2017-09-05T00:23:06.493Z,5.00
2017-09-05T00:25:34.728Z,4.27
2017-09-05T00:28:02.967Z,5.70
2017-09-05T00:30:31.491Z,5.00
2017-09-05T00:32:59.724Z,4.67
2017-09-05T00:35:27.988Z,6.23
2017-09-05T00:37:56.268Z,4.90
2017-09-05T00:40:24.525Z,4.20
2017-09-05T00:42:52.755Z,5.13
2017-09-05T00:45:21.283Z,5.50
2017-09-05T00:50:11.166Z,5.70
2017-09-05T00:52:39.422Z,5.47
2017-09-05T00:55:07.654Z,5.53
2017-09-05T00:57:35.888Z,6.20
2017-09-05T01:00:04.448Z,5.17
2017-09-05T01:02:32.684Z,5.10
2017-09-05T01:05:00.927Z,5.40
2017-09-05T01:07:29.192Z,5.03
2017-09-05T01:09:57.435Z,11.20
2017-09-05T01:12:25.684Z,12.10
2017-09-05T01:14:53.957Z,4.40
2017-09-05T01:17:22.167Z,4.70
2017-09-05T01:19:50.409Z,8.33
2017-09-05T01:22:18.807Z,6.13
2017-09-05T01:24:47.253Z,4.93
2017-09-05T01:27:15.487Z,4.80
2017-09-05T01:29:43.764Z,5.37
2017-09-05T01:32:12.005Z,5.23
2017-09-05T01:34:40.239Z,4.67
2017-09-05T01:37:08.832Z,13.57
2017-09-05T01:39:37.069Z,6.10
2017-09-05T01:42:05.325Z,9.07
2017-09-05T01:44:33.604Z,5.90
2017-09-05T01:47:01.875Z,5.40
2017-09-05T01:49:30.962Z,4.43
2017-09-05T01:51:59.256Z,4.70
2017-09-05T01:54:27.493Z,5.00
2017-09-05T01:56:55.737Z,5.57
2017-09-05T01:59:24.024Z,5.53
2017-09-05T02:01:52.266Z,6.10
2017-09-05T02:04:20.513Z,6.07
2017-09-05T02:06:49.038Z,5.70
2017-09-05T02:09:17.271Z,6.87
2017-09-05T02:11:45.500Z,8.27
2017-09-05T02:14:13.833Z,5.87
2017-09-05T02:16:42.069Z,6.67
2017-09-05T02:19:10.434Z,7.17
2017-09-05T02:21:38.817Z,8.90
2017-09-05T02:24:07.080Z,5.67
2017-09-05T02:26:35.332Z,5.10
2017-09-05T02:29:03.611Z,7.20
2017-09-05T02:31:31.852Z,4.97
2017-09-05T02:34:00.106Z,6.60
2017-09-05T02:36:28.894Z,8.20
2017-09-05T02:38:57.245Z,6.17
2017-09-05T02:41:25.480Z,5.10
2017-09-05T02:43:53.760Z,4.80
2017-09-05T02:46:21.998Z,8.73
2017-09-05T02:48:50.239Z,5.50
2017-09-05T02:51:18.633Z,5.43
2017-09-05T02:53:47.825Z,7.27
2017-09-05T02:56:16.061Z,5.47
2017-09-05T02:58:44.338Z,4.30
2017-09-05T03:01:12.576Z,8.13
2017-09-05T03:03:40.879Z,7.10
2017-09-05T03:06:09.156Z,7.00
2017-09-05T03:08:37.390Z,6.60
2017-09-05T03:11:06.104Z,6.67
2017-09-05T03:13:34.441Z,5.97
2017-09-05T03:16:02.679Z,7.93
2017-09-05T03:18:31.144Z,7.17
2017-09-05T03:20:59.490Z,9.80
2017-09-05T03:23:27.721Z,7.10
2017-09-05T03:25:55.949Z,7.57
2017-09-05T03:28:24.536Z,6.93
2017-09-05T03:30:52.774Z,10.67
2017-09-05T03:33:21.009Z,8.17
2017-09-05T03:35:49.537Z,8.87
2017-09-05T03:38:17.824Z,9.10
2017-09-05T03:40:46.097Z,13.93
2017-09-05T03:43:14.377Z,7.10
2017-09-05T03:45:42.621Z,8.50
2017-09-05T03:48:10.868Z,31.53
2017-09-05T03:50:39.154Z,18.73
2017-09-05T03:53:07.392Z,8.53
2017-09-05T03:55:35.712Z,7.87
2017-09-05T03:58:03.995Z,12.30
2017-09-05T04:00:32.281Z,8.53
2017-09-05T04:03:00.520Z,6.60
2017-09-05T04:05:29.143Z,8.97
2017-09-05T04:07:58.139Z,7.50
2017-09-05T04:10:27.141Z,6.53
2017-09-05T04:12:55.935Z,7.23
2017-09-05T04:15:24.184Z,15.40
2017-09-05T04:17:52.461Z,8.83
2017-09-05T04:20:20.729Z,11.13
2017-09-05T04:22:49.008Z,7.80
2017-09-05T04:25:17.268Z,9.30
2017-09-05T04:27:45.851Z,7.90
2017-09-05T04:30:14.089Z,8.33
2017-09-05T04:32:42.339Z,9.50
2017-09-05T04:35:10.760Z,13.33
2017-09-05T04:37:39.936Z,7.23
2017-09-05T04:40:08.274Z,9.03
2017-09-05T04:42:40.898Z,10.87
2017-09-05T04:45:10.093Z,12.30
2017-09-05T04:47:38.512Z,15.33
2017-09-05T04:50:07.225Z,13.03
2017-09-05T04:52:35.616Z,10.27
2017-09-05T04:55:03.892Z,12.17
2017-09-05T04:57:32.280Z,11.60
2017-09-05T05:00:02.554Z,9.23
2017-09-05T05:02:33.590Z,8.40
2017-09-05T05:05:02.751Z,15.93
2017-09-05T05:07:31.008Z,14.10
2017-09-05T05:09:59.459Z,15.03
2017-09-05T05:12:27.851Z,12.63
2017-09-05T05:14:56.170Z,12.87
2017-09-05T05:17:24.490Z,13.70
2017-09-05T05:19:52.736Z,5.67
2017-09-05T05:26:12.528Z,11.77
2017-09-05T05:28:41.102Z,6.10
2017-09-05T05:31:09.340Z,9.00
2017-09-05T05:33:37.593Z,9.23
2017-09-05T05:36:05.889Z,14.73
2017-09-05T05:38:34.151Z,12.47
2017-09-05T05:41:02.421Z,13.07
2017-09-05T05:43:30.955Z,11.20
2017-09-05T05:45:59.454Z,8.17
2017-09-05T05:48:27.695Z,14.70
2017-09-05T05:50:55.992Z,14.43
2017-09-05T05:53:24.265Z,10.70
2017-09-05T05:55:52.522Z,7.77
2017-09-05T05:58:20.853Z,9.93
2017-09-05T06:00:49.094Z,12.80
2017-09-05T06:03:17.342Z,10.70
2017-09-05T06:05:45.706Z,8.63
2017-09-05T06:08:13.933Z,8.30
2017-09-05T06:10:42.181Z,8.30
2017-09-05T06:13:10.512Z,10.60
2017-09-05T06:15:38.760Z,10.40
2017-09-05T06:18:07.052Z,8.30
2017-09-05T06:20:35.503Z,8.67
2017-09-05T06:23:03.732Z,8.63
2017-09-05T06:25:32.032Z,11.33
2017-09-05T06:28:00.442Z,13.07
2017-09-05T06:30:28.717Z,9.03
2017-09-05T06:32:56.997Z,11.83
2017-09-05T06:35:25.260Z,8.73
2017-09-05T06:37:53.501Z,9.57
2017-09-05T06:40:21.786Z,6.30
2017-09-05T06:42:50.023Z,8.90
2017-09-05T06:45:18.267Z,9.83
2017-09-05T06:47:46.732Z,7.10
2017-09-05T06:50:14.985Z,8.20
2017-09-05T06:52:43.238Z,14.10
2017-09-05T06:55:11.541Z,10.97
2017-09-05T06:57:39.793Z,7.57
2017-09-05T07:00:08.047Z,6.67
2017-09-05T07:02:36.422Z,10.87
2017-09-05T07:05:04.712Z,7.57
2017-09-05T07:07:33.075Z,12.13
2017-09-05T07:10:01.351Z,11.50
2017-09-05T07:12:29.953Z,7.03
2017-09-05T07:14:58.408Z,8.13
2017-09-05T07:17:26.893Z,10.33
2017-09-05T07:19:55.482Z,12.50
2017-09-05T07:22:23.816Z,8.60
2017-09-05T07:24:52.067Z,12.43
2017-09-05T07:27:20.576Z,10.00
2017-09-05T07:29:49.897Z,5.37
2017-09-05T07:32:18.136Z,8.30
2017-09-05T07:34:46.393Z,5.10
2017-09-05T07:37:14.940Z,7.83
2017-09-05T07:39:43.199Z,5.83
2017-09-05T07:42:11.451Z,6.50
2017-09-05T07:44:39.734Z,11.03
2017-09-05T07:47:08.001Z,7.57
2017-09-05T07:49:36.461Z,6.93
2017-09-05T07:52:04.732Z,8.40
2017-09-05T07:54:32.996Z,4.77
2017-09-05T07:57:01.301Z,6.17
2017-09-05T07:59:29.798Z,14.10
2017-09-05T08:01:58.068Z,4.73
2017-09-05T08:04:26.387Z,5.23
2017-09-05T08:06:54.609Z,4.60
2017-09-05T08:09:22.894Z,4.73
2017-09-05T08:11:51.178Z,8.50
2017-09-05T08:14:19.422Z,5.20
2017-09-05T08:16:47.665Z,4.50
2017-09-05T08:19:15.985Z,2.60
2017-09-05T08:21:44.530Z,4.60
2017-09-05T08:24:12.801Z,4.27
2017-09-05T08:26:41.104Z,3.27
2017-09-05T08:29:09.397Z,5.03
2017-09-05T08:31:37.682Z,4.57
2017-09-05T08:34:05.980Z,9.90
2017-09-05T08:36:34.229Z,3.37
2017-09-05T08:39:02.485Z,5.37
2017-09-05T08:41:30.828Z,4.83
2017-09-05T08:43:59.063Z,3.60
2017-09-05T08:46:27.309Z,5.73
2017-09-05T08:48:55.980Z,6.73
2017-09-05T08:51:24.214Z,3.37
2017-09-05T08:53:52.475Z,3.80
2017-09-05T08:56:20.839Z,5.60
2017-09-05T08:58:49.089Z,4.10
2017-09-05T09:01:17.386Z,4.80
2017-09-05T09:03:45.919Z,4.63
2017-09-05T09:06:14.156Z,6.23
2017-09-05T09:08:42.485Z,6.37
2017-09-05T09:11:10.748Z,5.13
2017-09-05T09:13:39.248Z,3.90
2017-09-05T09:16:07.516Z,7.40
2017-09-05T09:18:35.899Z,3.27
2017-09-05T09:21:04.197Z,5.10
2017-09-05T09:23:32.441Z,5.10
2017-09-05T09:26:00.741Z,6.70
2017-09-05T09:28:29.001Z,6.17
2017-09-05T09:30:57.254Z,5.70
2017-09-05T09:33:25.626Z,5.93
2017-09-05T09:35:53.979Z,12.30
2017-09-05T09:38:22.241Z,7.80
2017-09-05T09:40:50.497Z,8.27
2017-09-05T09:43:18.761Z,4.93
2017-09-05T09:45:47.051Z,4.60
2017-09-05T09:48:15.305Z,3.80
2017-09-05T09:50:43.615Z,3.20
2017-09-05T09:53:12.010Z,4.00
2017-09-05T09:55:40.267Z,4.90
2017-09-05T09:58:08.532Z,5.23
2017-09-05T10:00:36.835Z,4.17
2017-09-05T10:03:05.554Z,5.10
2017-09-05T10:05:33.808Z,7.93
2017-09-05T10:08:02.096Z,5.23
2017-09-05T10:10:30.559Z,7.20
2017-09-05T10:12:58.877Z,6.30
2017-09-05T10:15:27.169Z,7.00
2017-09-05T10:17:55.449Z,9.03
2017-09-05T10:20:23.794Z,6.83
2017-09-05T10:22:52.029Z,9.97
2017-09-05T10:25:20.403Z,7.20
2017-09-05T10:27:48.740Z,5.80
2017-09-05T10:30:17.010Z,7.50
2017-09-05T10:32:45.616Z,8.80
2017-09-05T10:35:13.863Z,8.23
2017-09-05T10:37:42.143Z,8.87
2017-09-05T10:40:10.425Z,7.73
2017-09-05T10:42:38.669Z,4.87
2017-09-05T10:45:06.971Z,6.60
2017-09-05T10:47:35.459Z,4.03
2017-09-05T10:50:03.719Z,8.57
2017-09-05T10:52:33.209Z,7.90
2017-09-05T10:55:01.437Z,7.17
2017-09-05T10:57:29.792Z,6.87
2017-09-05T10:59:58.189Z,6.90
2017-09-05T11:02:26.477Z,8.17
2017-09-05T11:04:54.825Z,5.90
2017-09-05T11:07:23.092Z,4.83
2017-09-05T11:09:51.462Z,7.60
2017-09-05T11:12:19.861Z,4.50
2017-09-05T11:14:48.356Z,5.67
2017-09-05T11:17:16.910Z,5.20
2017-09-05T11:19:45.562Z,5.83
2017-09-05T11:22:13.839Z,9.23
2017-09-05T11:24:42.344Z,5.67
2017-09-05T11:27:10.881Z,9.07
2017-09-05T11:29:39.301Z,5.87
2017-09-05T11:32:07.931Z,6.50
2017-09-05T11:34:36.193Z,5.80
2017-09-05T11:37:04.502Z,4.30
2017-09-05T11:39:32.783Z,7.63
2017-09-05T11:42:01.152Z,4.30
2017-09-05T11:44:29.731Z,4.30
2017-09-05T11:46:58.035Z,4.73
2017-09-05T11:49:26.408Z,4.60
2017-09-05T11:51:54.768Z,3.57
2017-09-05T11:54:23.023Z,7.73
2017-09-05T11:56:51.324Z,4.50
2017-09-05T11:59:19.582Z,3.50
2017-09-05T12:01:47.861Z,3.50
2017-09-05T12:04:16.127Z,6.07
2017-09-05T12:06:44.493Z,8.37
2017-09-05T12:09:12.798Z,3.80
2017-09-05T12:11:41.418Z,5.60
2017-09-05T12:14:09.742Z,5.90
2017-09-05T12:16:38.104Z,6.00
2017-09-05T12:19:06.337Z,4.80
2017-09-05T12:21:34.652Z,3.93
2017-09-05T12:24:02.923Z,3.87
2017-09-05T12:26:31.160Z,5.87
2017-09-05T12:28:59.449Z,6.77
2017-09-05T12:31:27.784Z,5.47
2017-09-05T12:33:56.134Z,7.50
2017-09-05T12:36:24.446Z,7.20
2017-09-05T12:38:52.708Z,7.50
2017-09-05T12:41:20.998Z,6.83
2017-09-05T12:43:49.348Z,8.37
2017-09-05T12:46:17.582Z,4.00
2017-09-05T12:48:45.859Z,4.23
2017-09-05T12:51:14.137Z,4.17
2017-09-05T12:53:42.396Z,7.40
2017-09-05T12:56:10.658Z,6.60
2017-09-05T12:58:39.078Z,6.33
2017-09-05T13:01:07.334Z,4.97
2017-09-05T13:03:35.581Z,6.53
2017-09-05T13:06:04.014Z,4.37
2017-09-05T13:08:32.281Z,4.33
2017-09-05T13:11:00.551Z,4.13
2017-09-05T13:13:28.860Z,5.40
2017-09-05T13:15:57.120Z,4.73
2017-09-05T13:18:25.394Z,3.70
2017-09-05T13:20:53.715Z,4.03
2017-09-05T13:23:21.972Z,3.33
2017-09-05T13:25:50.276Z,4.47
2017-09-05T13:28:18.741Z,4.93
2017-09-05T13:30:46.992Z,4.80
2017-09-05T13:33:15.232Z,4.20
2017-09-05T13:35:43.544Z,18.10
2017-09-05T13:38:11.855Z,4.87
2017-09-05T13:40:40.102Z,7.43
2017-09-05T13:43:08.395Z,4.77
2017-09-05T13:45:36.647Z,6.43
2017-09-05T13:48:05.135Z,6.20
2017-09-05T13:50:33.449Z,5.23
2017-09-05T13:53:01.720Z,4.73
2017-09-05T13:55:29.987Z,3.70
2017-09-05T13:57:58.250Z,7.53
2017-09-05T14:00:26.515Z,3.90
2017-09-05T14:02:54.979Z,15.03
2017-09-05T14:05:23.264Z,5.97
2017-09-05T14:07:51.499Z,6.90
2017-09-05T14:10:19.733Z,5.30
2017-09-05T14:12:48.021Z,4.60
2017-09-05T14:15:16.266Z,5.37
2017-09-05T14:17:44.503Z,9.10
2017-09-05T14:20:12.784Z,5.40
2017-09-05T14:22:41.029Z,4.13
2017-09-05T14:25:09.275Z,4.63
2017-09-05T14:27:38.348Z,8.60
2017-09-05T14:30:06.585Z,5.47
2017-09-05T14:32:34.848Z,4.67
2017-09-05T14:35:03.320Z,8.13
2017-09-05T14:37:31.611Z,6.37
2017-09-05T14:39:59.975Z,6.83
2017-09-05T14:42:28.610Z,8.70
2017-09-05T14:44:57.645Z,4.73
2017-09-05T14:47:26.629Z,4.23
2017-09-05T14:49:54.932Z,6.70
2017-09-05T14:52:23.192Z,4.60
2017-09-05T14:54:51.429Z,4.63
2017-09-05T14:57:19.852Z,3.63
2017-09-05T14:59:48.112Z,4.17
2017-09-05T15:02:16.590Z,3.57
2017-09-05T15:04:44.866Z,5.00
2017-09-05T15:07:13.148Z,5.90
2017-09-05T15:09:41.434Z,20.17
2017-09-05T15:12:10.532Z,5.23
2017-09-05T15:14:38.776Z,6.37
2017-09-05T15:17:07.023Z,12.07
2017-09-05T15:19:35.344Z,4.20
2017-09-05T15:22:03.580Z,6.73
2017-09-05T15:24:31.841Z,4.50
2017-09-05T15:27:00.126Z,4.33
2017-09-05T15:29:28.453Z,6.80
2017-09-05T15:31:56.744Z,5.53
2017-09-05T15:34:25.162Z,5.57
2017-09-05T15:36:53.396Z,3.93
2017-09-05T15:39:21.632Z,5.77
2017-09-05T15:41:49.920Z,4.70
2017-09-05T15:44:18.167Z,5.47
2017-09-05T15:46:46.477Z,8.30
2017-09-05T15:49:14.748Z,4.83
2017-09-05T15:51:43.165Z,5.10
2017-09-05T15:54:11.474Z,4.00
2017-09-05T15:56:39.912Z,4.30
2017-09-05T15:59:08.186Z,4.30
2017-09-05T16:01:36.440Z,4.77
2017-09-05T16:04:04.773Z,12.63
2017-09-05T16:06:33.058Z,5.87
2017-09-05T16:09:01.498Z,9.70
2017-09-05T16:11:29.764Z,6.10
2017-09-05T16:13:58.037Z,8.67
2017-09-05T16:16:26.277Z,6.80
2017-09-05T16:18:54.685Z,5.47
2017-09-05T16:21:22.971Z,7.00
2017-09-05T16:23:51.469Z,6.00
2017-09-05T16:26:19.761Z,5.60
2017-09-05T16:28:48.036Z,7.20
2017-09-05T16:31:16.299Z,5.50
2017-09-05T16:33:44.655Z,10.10
2017-09-05T16:36:12.891Z,5.27
2017-09-05T16:38:41.168Z,7.40
2017-09-05T16:41:09.488Z,7.60
2017-09-05T16:43:37.764Z,10.53
2017-09-05T16:46:06.023Z,7.27
2017-09-05T16:48:34.629Z,5.50
2017-09-05T16:51:02.868Z,7.10
2017-09-05T16:53:31.134Z,8.27
2017-09-05T16:55:59.577Z,6.90
2017-09-05T16:58:33.324Z,9.10
2017-09-05T17:01:01.606Z,7.33
2017-09-05T17:03:29.919Z,6.73
2017-09-05T17:05:58.400Z,13.23
2017-09-05T17:08:26.865Z,8.27
2017-09-05T17:10:55.172Z,12.73
2017-09-05T17:13:23.416Z,7.50
2017-09-05T17:15:51.888Z,10.33
2017-09-05T17:18:20.136Z,12.17
2017-09-05T17:20:48.389Z,7.30
2017-09-05T17:23:16.971Z,7.70
2017-09-05T17:25:45.235Z,11.00
2017-09-05T17:28:13.485Z,8.90
2017-09-05T17:30:41.869Z,10.20
2017-09-05T17:33:10.376Z,8.77
2017-09-05T17:35:38.609Z,12.83
2017-09-05T17:40:41.665Z,10.37
2017-09-05T17:43:10.310Z,9.10
2017-09-05T17:45:38.828Z,9.70
2017-09-05T17:48:07.183Z,12.03
2017-09-05T17:50:35.517Z,12.30
2017-09-05T17:53:03.768Z,8.87
2017-09-05T17:55:32.047Z,14.37
2017-09-05T17:58:00.368Z,10.43
2017-09-05T18:00:28.622Z,11.70
2017-09-05T18:02:56.870Z,11.70
2017-09-05T18:05:25.140Z,9.80
2017-09-05T18:07:53.391Z,14.27
2017-09-05T18:10:21.655Z,10.43
2017-09-05T18:12:49.938Z,17.63
2017-09-05T18:15:18.226Z,16.73
2017-09-05T18:17:46.477Z,12.30
2017-09-05T18:20:14.877Z,11.87
2017-09-05T18:22:43.364Z,14.37
2017-09-05T18:25:11.622Z,10.07
2017-09-05T18:27:39.899Z,15.00
2017-09-05T18:30:08.149Z,12.93
2017-09-05T18:32:36.397Z,12.50
2017-09-05T18:35:04.846Z,13.00
2017-09-05T18:37:33.116Z,14.33
2017-09-05T18:40:01.418Z,12.07
2017-09-05T18:42:29.708Z,13.03
2017-09-05T18:44:57.993Z,15.27
2017-09-05T18:47:26.304Z,15.53
2017-09-05T18:49:54.601Z,18.93
2017-09-05T18:52:22.885Z,15.40
2017-09-05T18:54:51.139Z,19.73
2017-09-05T18:57:19.599Z,17.50
2017-09-05T18:59:48.105Z,18.97
2017-09-05T19:02:16.372Z,26.93
2017-09-05T19:04:53.357Z,19.27
2017-09-05T19:07:31.650Z,16.13
2017-09-05T19:10:02.007Z,18.67
2017-09-05T19:12:30.244Z,18.33
2017-09-05T19:14:58.504Z,15.80
2017-09-05T19:17:27.051Z,13.53
2017-09-05T19:19:55.280Z,14.27
2017-09-05T19:22:23.547Z,48.27
2017-09-05T19:24:51.893Z,16.93
2017-09-05T19:27:20.149Z,15.87
2017-09-05T19:29:48.403Z,19.07
2017-09-05T19:32:16.979Z,18.57
2017-09-05T19:34:45.236Z,14.60
2017-09-05T19:37:13.518Z,17.43
2017-09-05T19:39:41.929Z,19.10
2017-09-05T19:42:10.176Z,17.90
2017-09-05T19:44:38.507Z,12.93
2017-09-05T19:47:06.962Z,16.10
2017-09-05T19:49:35.231Z,16.23
2017-09-05T19:52:03.494Z,16.20
2017-09-05T19:54:31.831Z,16.80
2017-09-05T19:57:00.117Z,15.97
2017-09-05T19:59:28.358Z,18.10
2017-09-05T20:01:56.636Z,21.30
2017-09-05T20:04:24.957Z,21.97
2017-09-05T20:06:53.208Z,29.93
2017-09-05T20:09:21.680Z,32.80
2017-09-05T20:11:49.938Z,38.13
2017-09-05T20:14:18.191Z,54.53
2017-09-05T20:16:46.473Z,36.60
2017-09-05T20:19:14.728Z,34.40
2017-09-05T20:21:42.973Z,33.00
2017-09-05T20:24:11.493Z,30.70
2017-09-05T20:26:39.777Z,24.10
2017-09-05T20:29:08.031Z,28.90
2017-09-05T20:31:36.558Z,22.03
2017-09-05T20:34:05.142Z,18.80
2017-09-05T20:36:33.385Z,21.23
2017-09-05T20:39:01.668Z,16.30
2017-09-05T20:41:30.179Z,18.53
2017-09-05T20:43:58.421Z,22.20
2017-09-05T20:46:26.762Z,20.23
2017-09-05T20:48:55.005Z,27.37
2017-09-05T20:51:23.269Z,20.47
2017-09-05T20:53:51.543Z,17.37
2017-09-05T20:56:19.792Z,19.20
2017-09-05T20:58:48.050Z,22.53
2017-09-05T21:01:16.478Z,29.33
2017-09-05T21:03:44.732Z,25.03
2017-09-05T21:06:12.988Z,34.80
2017-09-05T21:08:41.413Z,29.80
2017-09-05T21:11:09.909Z,27.70
2017-09-05T21:13:38.171Z,28.33
2017-09-05T21:16:06.458Z,27.63
2017-09-05T21:18:34.741Z,32.70
2017-09-05T21:21:03.029Z,29.33
2017-09-05T21:23:31.445Z,27.10
2017-09-05T21:26:00.141Z,22.30
2017-09-05T21:28:28.393Z,25.37
2017-09-05T21:30:57.003Z,27.57
2017-09-05T21:33:25.608Z,25.10
2017-09-05T21:35:53.872Z,23.80
2017-09-05T21:38:22.147Z,23.57
2017-09-05T21:40:50.424Z,26.70
2017-09-05T21:43:18.659Z,26.87
2017-09-05T21:45:46.974Z,26.00
2017-09-05T21:48:15.239Z,27.47
2017-09-05T21:50:43.500Z,20.83
2017-09-05T21:53:12.138Z,20.97
2017-09-05T21:55:40.380Z,20.10
2017-09-05T21:58:08.636Z,21.77
2017-09-05T22:00:37.127Z,27.53
2017-09-05T22:03:07.114Z,24.70
2017-09-05T22:05:35.642Z,28.90
2017-09-05T22:08:03.932Z,24.53
2017-09-05T22:10:32.181Z,27.97
2017-09-05T22:13:00.436Z,29.83
2017-09-05T22:15:34.553Z,26.00
2017-09-05T22:18:02.809Z,24.20
2017-09-05T22:20:36.837Z,21.27
2017-09-05T22:23:05.142Z,22.20
2017-09-05T22:25:39.018Z,20.70
2017-09-05T22:28:13.033Z,22.20
2017-09-05T22:30:41.644Z,21.70
2017-09-05T22:33:09.937Z,17.60
2017-09-05T22:35:38.214Z,23.83
2017-09-05T22:38:06.505Z,27.47
2017-09-05T22:40:34.737Z,25.80
2017-09-05T22:43:02.997Z,23.57
2017-09-05T22:45:31.413Z,24.70
2017-09-05T22:47:59.658Z,28.27
2017-09-05T22:50:27.929Z,28.43
2017-09-05T22:52:56.221Z,24.80
2017-09-05T22:55:24.513Z,21.27
2017-09-05T22:57:52.776Z,21.63
2017-09-05T23:00:21.055Z,24.83
2017-09-05T23:02:49.519Z,23.33
2017-09-05T23:05:18.180Z,19.87
2017-09-05T23:07:46.444Z,19.93
2017-09-05T23:10:14.710Z,24.63
2017-09-05T23:12:42.961Z,20.00
2017-09-05T23:15:11.348Z,17.50
2017-09-05T23:17:39.823Z,27.33
2017-09-05T23:20:08.309Z,22.30
2017-09-05T23:22:36.772Z,22.30
2017-09-05T23:25:05.020Z,24.67
2017-09-05T23:27:33.259Z,18.00
2017-09-05T23:30:01.541Z,22.20
2017-09-05T23:32:29.792Z,20.40
2017-09-05T23:34:58.044Z,20.63
2017-09-05T23:37:26.318Z,19.60
2017-09-05T23:39:54.564Z,22.03
2017-09-05T23:42:22.872Z,22.63
2017-09-05T23:44:51.161Z,20.70
2017-09-05T23:47:19.406Z,23.70
2017-09-05T23:49:47.660Z,25.83
2017-09-05T23:52:15.945Z,22.10
2017-09-05T23:54:44.204Z,26.63
2017-09-05T23:57:12.496Z,19.50
2017-09-05T23:59:40.795Z,24.87
